Data for 07/11/2007

Time Sea-Level Adjusted Pressure Absolute Pressure Temperature Relative Humidity Dew Point   
(mb) (inHg) (mb) (inHg) (C) (F) (%) (C) (F)
00:05 1023 30.21 853 25.19 17.8 64.1 41 4.4 39.8
00:10 1023 30.21 853 25.19 17.7 63.8 41 4.3 39.7
00:15 1023 30.21 853 25.19 17.6 63.7 41 4.3 39.7
00:20 1023 30.21 853 25.19 17.6 63.7 41 4.3 39.7
00:25 1023 30.21 853 25.19 17.6 63.6 41 4.3 39.7
00:30 1023 30.21 853 25.19 17.5 63.4 41 4.3 39.7
00:35 1023 30.21 853 25.19 17.4 63.3 41 4.3 39.7
00:40 1023 30.21 853 25.19 17.4 63.4 41 4.2 39.6
00:45 1024 30.24 853 25.19 17.5 63.5 41 4.3 39.7
00:50 1023 30.21 853 25.19 17.4 63.3 41 4.3 39.7
00:55 1023 30.21 853 25.19 17.3 63.2 42 4.2 39.6
01:00 1023 30.21 853 25.19 17.3 63.1 41 4.1 39.5
01:05 1023 30.21 853 25.19 17.3 63.1 42 4.2 39.6
01:10 1023 30.21 853 25.19 17.3 63.1 42 4.2 39.6
01:15 1023 30.21 853 25.19 17.2 63 42 4.2 39.6
01:20 1023 30.21 853 25.19 17.1 62.9 42 4.3 39.7
01:25 1024 30.24 853 25.19 17 62.6 42 4.2 39.6
01:30 1024 30.24 853 25.19 17 62.6 42 4.2 39.5
01:35 1024 30.24 853 25.19 16.9 62.4 43 4.3 39.7
01:40 1024 30.24 853 25.19 16.9 62.3 43 4.3 39.7
01:45 1024 30.24 853 25.19 16.8 62.2 43 4.3 39.8
01:50 1024 30.24 853 25.19 16.7 62 43 4.2 39.6
01:55 1024 30.24 853 25.19 16.6 61.8 43 4.2 39.6
02:00 1024 30.24 853 25.19 16.5 61.6 44 4.3 39.7
02:05 1024 30.24 853 25.19 16.4 61.4 44 4.3 39.8
02:10 1024 30.24 853 25.19 16.2 61.1 45 4.3 39.7
02:15 1024 30.24 853 25.19 16.1 60.9 45 4.2 39.6
02:20 1024 30.24 853 25.19 16.1 61 44 4.1 39.4
02:25 1024 30.24 853 25.19 16.1 60.9 45 4.1 39.5
02:30 1024 30.24 853 25.19 16 60.8 44 3.9 39.1
02:35 1024 30.24 853 25.19 16.1 61 44 3.9 39.1
02:40 1024 30.24 853 25.19 16 60.8 44 3.8 38.9
02:45 1024 30.24 853 25.19 15.9 60.7 44 3.9 39
02:50 1024 30.24 853 25.19 15.9 60.6 44 3.8 38.8
02:55 1024 30.24 853 25.19 15.8 60.5 44 3.6 38.5
03:00 1024 30.24 853 25.19 15.8 60.5 44 3.6 38.5
03:05 1024 30.24 853 25.19 15.8 60.5 44 3.6 38.4
03:10 1024 30.24 853 25.19 15.7 60.3 44 3.5 38.3
03:15 1024 30.24 853 25.19 15.7 60.2 44 3.5 38.4
03:20 1024 30.24 853 25.19 15.5 60 44 3.5 38.3
03:25 1024 30.24 853 25.19 15.4 59.7 45 3.6 38.4
03:30 1024 30.24 853 25.19 15.2 59.3 46 3.6 38.5
03:35 1024 30.24 853 25.19 15 59 47 3.8 38.8
03:40 1024 30.24 853 25.19 14.6 58.2 49 4.2 39.5
03:45 1024 30.24 853 25.19 14.1 57.3 51 4.1 39.4
03:50 1024 30.24 853 25.19 13.9 56.9 51 4 39.3
03:55 1024 30.24 853 25.19 13.8 56.8 51 4 39.2
04:00 1024 30.24 853 25.19 13.8 56.9 51 3.9 39
04:05 1024 30.24 853 25.19 13.9 56.9 50 3.8 38.8
04:10 1024 30.24 853 25.19 13.9 57 50 3.8 38.8
04:15 1024 30.24 853 25.19 13.9 56.9 51 3.9 39.1
04:20 1024 30.24 853 25.19 13.7 56.7 52 4 39.2
04:25 1024 30.24 853 25.19 13.5 56.3 52 4 39.1
04:30 1024 30.24 853 25.19 13.4 56.1 53 3.9 39.1
04:35 1024 30.24 853 25.19 13.3 56 53 3.9 39.1
04:40 1024 30.24 853 25.19 13.3 55.9 53 3.9 39
04:45 1024 30.24 853 25.19 13.2 55.8 53 3.9 39
04:50 1024 30.24 853 25.19 13.3 55.9 52 3.8 38.8
04:55 1024 30.24 853 25.19 13.3 55.9 53 4 39.1
05:00 1024 30.24 853 25.19 13.2 55.8 53 3.9 39
05:05 1024 30.24 853 25.19 13.3 56 52 3.7 38.6
05:10 1024 30.24 853 25.19 13.5 56.2 51 3.7 38.6
05:15 1024 30.24 853 25.19 13.5 56.3 51 3.6 38.5
05:20 1024 30.24 853 25.19 13.5 56.3 51 3.7 38.7
05:25 1024 30.24 853 25.19 13.5 56.3 51 3.8 38.8
05:30 1024 30.24 853 25.19 13.5 56.3 51 3.6 38.5
05:35 1024 30.24 853 25.19 13.5 56.4 51 3.6 38.6
05:40 1024 30.24 853 25.19 13.6 56.5 51 3.6 38.5
05:45 1024 30.24 853 25.19 13.7 56.6 51 3.7 38.7
05:50 1024 30.24 853 25.19 13.5 56.4 52 3.9 39
05:55 1024 30.24 853 25.19 13.3 55.9 53 3.9 39
06:00 1024 30.24 853 25.19 13.1 55.5 54 4 39.2
06:05 1024 30.24 853 25.19 12.8 55 55 4.1 39.3
06:10 1024 30.24 853 25.19 12.6 54.7 55 4 39.1
06:15 1024 30.24 853 25.19 12.6 54.6 56 4.1 39.4
06:20 1024 30.24 853 25.19 12.5 54.6 56 4.1 39.4
06:25 1024 30.24 854 25.22 12.5 54.5 57 4.2 39.5
06:30 1024 30.24 853 25.19 12.6 54.7 55 4 39.2
06:35 1024 30.24 854 25.22 12.8 55.1 54 3.9 39.1
06:40 1024 30.24 854 25.22 12.9 55.3 54 4 39.2
06:45 1024 30.24 854 25.22 13.1 55.5 55 4.2 39.5
06:50 1024 30.24 854 25.22 13.1 55.6 54 4.2 39.6
06:55 1024 30.24 854 25.22 13.2 55.7 54 4.2 39.5
07:00 1024 30.24 854 25.22 13.3 55.9 54 4.2 39.6
07:05 1024 30.24 854 25.22 13.5 56.4 54 4.4 39.9
07:10 1024 30.24 854 25.22 13.7 56.6 54 4.6 40.2
07:15 1024 30.24 854 25.22 13.8 56.9 54 4.6 40.3
07:20 1024 30.24 854 25.22 13.9 57 54 4.7 40.5
07:25 1024 30.24 854 25.22 14.2 57.5 53 4.7 40.4
07:30 1024 30.24 854 25.22 14.6 58.3 51 4.6 40.3
07:35 1024 30.24 854 25.22 15.3 59.5 50 4.9 40.9
07:40 1024 30.24 854 25.22 15.7 60.3 50 5.3 41.5
07:45 1024 30.24 854 25.22 16.1 61 49 5.4 41.7
07:50 1024 30.24 854 25.22 16.5 61.7 48 5.7 42.2
07:55 1024 30.24 854 25.22 16.7 62 49 6.1 42.9
08:00 1024 30.24 854 25.22 17 62.6 47 5.6 42.2
08:05 1024 30.24 854 25.22 17.5 63.4 46 6 42.8
08:10 1024 30.24 854 25.22 17.3 63.1 48 6.1 43
08:15 1024 30.24 854 25.22 17.3 63.1 47 5.9 42.6
08:20 1024 30.24 854 25.22 17.6 63.7 45 5.6 42.1
08:25 1024 30.24 854 25.22 18.3 64.9 43 5.7 42.3
08:30 1024 30.24 854 25.22 18.3 65 43 5.6 42.1
08:35 1024 30.24 854 25.22 18.2 64.8 44 5.8 42.5
08:40 1024 30.24 854 25.22 17.8 64 44 5.4 41.7
08:45 1025 30.27 854 25.22 17.8 64 43 5.3 41.6
08:50 1024 30.24 854 25.22 17.8 64 42 4.8 40.6
08:55 1025 30.27 854 25.22 17.8 64.1 43 5.3 41.5
09:00 1025 30.27 854 25.22 18.3 64.9 42 5.1 41.3
09:05 1025 30.27 854 25.22 18.6 65.4 43 5.8 42.5
09:10 1025 30.27 854 25.22 18.4 65.1 41 4.9 40.8
09:15 1025 30.27 854 25.22 18.7 65.6 42 5.7 42.3
09:20 1024 30.24 854 25.22 19.2 66.6 39 5 41
09:25 1024 30.24 854 25.22 19.6 67.3 39 5.4 41.7
09:30 1024 30.24 854 25.22 19.7 67.4 39 5.5 41.9
09:35 1024 30.24 854 25.22 19.6 67.2 40 5.6 42.1
09:40 1024 30.24 854 25.22 18.6 65.4 41 5.4 41.7
09:45 1024 30.24 854 25.22 18.8 65.8 39 4.7 40.4
09:50 1024 30.24 854 25.22 19.6 67.3 38 4.9 40.9
09:55 1024 30.24 853 25.19 19.7 67.4 38 5.3 41.5
10:00 1024 30.24 853 25.19 19.6 67.3 38 5.1 41.2
10:05 1024 30.24 853 25.19 19.9 67.8 37 4.8 40.6
10:10 1024 30.24 853 25.19 20.2 68.4 35 4.6 40.3
10:15 1024 30.24 853 25.19 20.1 68.1 37 4.9 40.8
10:20 1024 30.24 853 25.19 19.8 67.7 39 5.8 42.4
10:25 1024 30.24 853 25.19 20.3 68.6 38 5.6 42
10:30 1024 30.24 853 25.19 20.7 69.3 37 5.7 42.2
10:35 1024 30.24 853 25.19 21.7 71.1 35 5.6 42.1
10:40 1024 30.24 853 25.19 22.2 72 34 5.7 42.3
10:45 1024 30.24 853 25.19 22.3 72.2 34 5.7 42.3
10:50 1024 30.24 853 25.19 22.2 71.9 34 5.8 42.4
10:55 1024 30.24 853 25.19 21.6 70.9 34 5.2 41.4
11:00 1024 30.24 853 25.19 21.7 71.1 34 5.4 41.8
11:05 1024 30.24 853 25.19 21.7 71 35 5.6 42.1
11:10 1024 30.24 853 25.19 21.8 71.2 34 5.5 42
11:15 1024 30.24 853 25.19 21.7 71.1 35 5.9 42.7
11:20 1024 30.24 853 25.19 22.3 72.2 32 5 41.1
11:25 1024 30.24 853 25.19 22.3 72.2 33 5.6 42.1
11:30 1024 30.24 853 25.19 22.3 72.2 33 5.7 42.2
11:35 1024 30.24 853 25.19 23.2 73.7 33 6.2 43.1
11:40 1024 30.24 853 25.19 23.8 74.8 31 6 42.8
11:45 1024 30.24 853 25.19 24.1 75.3 30 5.7 42.2
11:50 1024 30.24 853 25.19 24.7 76.4 31 6.6 43.9
11:55 1023 30.21 853 25.19 24.8 76.6 30 6.5 43.7
12:00 1023 30.21 853 25.19 24.6 76.3 31 6.8 44.3
12:05 1023 30.21 853 25.19 23.4 74.1 32 6.2 43.2
12:10 1023 30.21 852 25.16 23.5 74.2 31 5.8 42.4
12:15 1023 30.21 852 25.16 24.6 76.3 30 5.9 42.7
12:20 1023 30.21 852 25.16 24.7 76.5 30 6.5 43.7
12:25 1023 30.21 852 25.16 24.8 76.7 30 6.3 43.3
12:30 1023 30.21 852 25.16 24.9 76.8 30 6.6 43.8
12:35 1023 30.21 852 25.16 25.3 77.5 29 6.1 42.9
12:40 1023 30.21 852 25.16 24.9 76.8 29 6 42.7
12:45 1023 30.21 852 25.16 25.5 77.9 28 6 42.7
12:50 1023 30.21 852 25.16 26.4 79.5 27 6.2 43.2
12:55 1023 30.21 852 25.16 25.4 77.8 28 6.1 42.9
13:00 1023 30.21 852 25.16 25.8 78.5 27 5.6 42.1
13:05 1023 30.21 852 25.16 27.1 80.8 25 5.9 42.6
13:10 1023 30.21 852 25.16 27.6 81.7 25 6.3 43.3
13:15 1023 30.21 852 25.16 28 82.4 24 5.9 42.6
13:20 1023 30.21 852 25.16 27.4 81.4 26 6.6 43.8
13:25 1023 30.21 852 25.16 27.2 81 25 5.7 42.2
13:30 1022 30.18 852 25.16 27.1 80.9 25 5.5 42
13:35 1022 30.18 852 25.16 27.3 81.1 24 5.2 41.4
13:40 1022 30.18 852 25.16 27.2 80.9 23 4.4 40
13:45 1022 30.18 852 25.16 27.7 81.9 23 4.7 40.5
13:50 1022 30.18 852 25.16 28.1 82.7 24 5.8 42.4
13:55 1022 30.18 851 25.13 27.6 81.6 21 3.4 38.2
14:00 1022 30.18 851 25.13 26.9 80.5 24 4.8 40.7
14:05 1022 30.18 851 25.13 27.5 81.5 22 4.2 39.6
14:10 1022 30.18 851 25.13 28.2 82.8 20 3.8 38.8
14:15 1022 30.18 851 25.13 28.4 83.2 19 3.2 37.7
14:20 1022 30.18 851 25.13 28.9 84 19 3.2 37.7
14:25 1022 30.18 851 25.13 29.3 84.7 19 3.4 38.1
14:30 1022 30.18 851 25.13 29.5 85 18 3.1 37.6
14:35 1022 30.18 851 25.13 29.1 84.3 19 3.4 38.1
14:40 1022 30.18 851 25.13 29.5 85.1 18 3.3 38
14:45 1022 30.18 851 25.13 29.5 85.1 17 2.5 36.6
14:50 1022 30.18 851 25.13 29.1 84.3 18 2.7 36.9
14:55 1022 30.18 851 25.13 28.9 83.9 20 4 39.2
15:00 1022 30.18 851 25.13 27.5 81.5 21 3.4 38.1
15:05 1022 30.18 851 25.13 27.7 81.8 20 3.1 37.6
15:10 1022 30.18 851 25.13 28.3 83 21 4.3 39.7
15:15 1022 30.18 851 25.13 28.7 83.7 19 3.3 38
15:20 1022 30.18 851 25.13 29.6 85.2 19 3.5 38.3
15:25 1022 30.18 851 25.13 29.7 85.4 19 3.9 39.1
15:30 1022 30.18 851 25.13 29.4 84.8 18 3 37.3
15:35 1021 30.15 851 25.13 29.8 85.7 16 1.7 35
15:40 1021 30.15 851 25.13 30.2 86.4 17 3.1 37.6
15:45 1021 30.15 851 25.13 30.1 86.2 22 6.6 43.9
15:50 1021 30.15 851 25.13 28.6 83.5 20 3.7 38.6
15:55 1021 30.15 851 25.13 28.9 84 17 1.9 35.4
16:00 1021 30.15 851 25.13 29 84.2 17 2.1 35.8
16:05 1021 30.15 850 25.1 28.7 83.7 17 1.8 35.2
16:10 1021 30.15 850 25.1 28.8 83.8 16 0.6 33.1
16:15 1021 30.15 850 25.1 28.8 83.8 16 0.5 32.8
16:20 1021 30.15 850 25.1 29.3 84.8 18 2.8 37
16:25 1021 30.15 850 25.1 29 84.1 18 2.9 37.2
16:30 1021 30.15 850 25.1 29.6 85.3 15 0.9 33.7
16:35 1021 30.15 850 25.1 30 85.9 15 1.1 33.9
16:40 1021 30.15 850 25.1 29.9 85.9 15 1.1 34
16:45 1021 30.15 850 25.1 29.5 85 16 1.4 34.6
16:50 1021 30.15 850 25.1 28.6 83.6 18 2.1 35.7
16:55 1021 30.15 850 25.1 29.3 84.7 15 0.4 32.6
17:00 1021 30.15 850 25.1 28.7 83.7 15 0.1 32.2
17:05 1021 30.15 850 25.1 28.5 83.4 17 1.5 34.8
17:10 1021 30.15 850 25.1 28.6 83.5 14 -0.9 30.4
17:15 1021 30.15 850 25.1 28.9 84.1 15 -0.4 31.2
17:20 1021 30.15 850 25.1 28.8 83.9 14 -0.7 30.8
17:25 1021 30.15 850 25.1 28.8 83.8 14 -1.1 29.9
17:30 1021 30.15 850 25.1 29.2 84.6 13 -1.4 29.5
17:35 1021 30.15 850 25.1 29.2 84.6 14 -0.6 30.9
17:40 1021 30.15 850 25.1 29.6 85.2 13 -1.6 29.1
17:45 1021 30.15 850 25.1 30 86 13 -0.8 30.5
17:50 1021 30.15 850 25.1 30.3 86.6 12 -2.3 27.9
17:55 1021 30.15 850 25.1 30.5 86.9 13 -0.9 30.3
18:00 1021 30.15 850 25.1 30.5 86.8 13 -0.7 30.7
18:05 1021 30.15 850 25.1 30.1 86.2 14 -0.3 31.4
18:10 1021 30.15 850 25.1 29.7 85.5 14 -0.7 30.7
18:15 1021 30.15 850 25.1 30.1 86.1 12 -1.8 28.8
18:20 1020 30.12 850 25.1 30.2 86.4 13 -0.9 30.4
18:25 1020 30.12 850 25.1 29.3 84.8 13 -1.1 30
18:30 1021 30.15 850 25.1 29 84.1 16 0.6 33.1
18:35 1020 30.12 850 25.1 29.3 84.7 14 -1 30.1
18:40 1020 30.12 850 25.1 29.1 84.3 14 -0.7 30.8
18:45 1020 30.12 850 25.1 28.7 83.6 16 0.8 33.4
18:50 1021 30.15 850 25.1 28.8 83.8 15 -0.1 31.8
18:55 1020 30.12 850 25.1 28.5 83.2 20 3.6 38.6
19:00 1021 30.15 850 25.1 28 82.3 21 3.8 38.8
19:05 1020 30.12 850 25.1 27.6 81.7 22 4 39.1
19:10 1020 30.12 850 25.1 27.4 81.2 22 3.8 38.9
19:15 1020 30.12 850 25.1 27.2 80.9 22 3.7 38.6
19:20 1020 30.12 850 25.1 26.9 80.5 22 3.6 38.5
19:25 1020 30.12 850 25.1 26.9 80.4 23 4.1 39.3
19:30 1020 30.12 850 25.1 26.5 79.7 23 4.1 39.5
19:35 1020 30.12 850 25.1 26.3 79.3 23 3.9 39
19:40 1020 30.12 850 25.1 26.2 79.1 24 4.3 39.7
19:45 1020 30.12 850 25.1 26.1 79 24 4.2 39.5
19:50 1020 30.12 850 25.1 25.9 78.6 25 4.6 40.2
19:55 1020 30.12 850 25.1 25.8 78.4 25 4.4 39.9
20:00 1020 30.12 850 25.1 25.6 78.1 25 4.6 40.3
20:05 1020 30.12 850 25.1 25.5 77.9 26 4.9 40.8
20:10 1021 30.15 850 25.1 25.3 77.6 26 4.8 40.7
20:15 1021 30.15 850 25.1 25.1 77.3 27 4.9 40.9
20:20 1021 30.15 850 25.1 25 77 26 4.5 40.1
20:25 1021 30.15 850 25.1 24.9 76.9 26 4.6 40.3
20:30 1021 30.15 850 25.1 24.7 76.5 27 4.6 40.4
20:35 1021 30.15 850 25.1 24.6 76.3 27 4.6 40.3
20:40 1021 30.15 850 25.1 24.4 76 28 4.8 40.6
20:45 1021 30.15 850 25.1 24.3 75.7 27 4.4 39.9
20:50 1021 30.15 850 25.1 24.1 75.4 27 4.4 39.9
20:55 1021 30.15 850 25.1 24 75.1 27 4.1 39.4
21:00 1021 30.15 850 25.1 23.8 74.8 27 3.9 39.1
21:05 1021 30.15 850 25.1 23.6 74.5 27 3.8 38.8
21:10 1021 30.15 850 25.1 23.4 74.1 28 4 39.2
21:15 1021 30.15 850 25.1 23.1 73.5 28 4 39.2
21:20 1021 30.15 850 25.1 22.8 73.1 29 3.9 39
21:25 1021 30.15 850 25.1 22.6 72.7 29 3.7 38.7
21:30 1021 30.15 850 25.1 22.5 72.6 28 3.6 38.4
21:35 1021 30.15 850 25.1 22.4 72.4 28 3.5 38.2
21:40 1021 30.15 850 25.1 22.4 72.3 29 3.4 38.2
21:45 1021 30.15 850 25.1 22.4 72.3 28 3.3 37.9
21:50 1021 30.15 850 25.1 22.5 72.4 28 3.2 37.7
21:55 1021 30.15 850 25.1 22.4 72.3 28 3 37.4
22:00 1021 30.15 850 25.1 22.3 72.1 28 3.1 37.5
22:05 1021 30.15 850 25.1 22.1 71.8 28 3.1 37.6
22:10 1021 30.15 851 25.13 22.1 71.7 29 3.2 37.8
22:15 1021 30.15 850 25.1 22 71.6 29 3.4 38.2
22:20 1021 30.15 851 25.13 22 71.6 29 3.2 37.7
22:25 1021 30.15 851 25.13 22 71.5 29 3.2 37.8
22:30 1022 30.18 851 25.13 21.8 71.3 29 3.3 37.9
22:35 1021 30.15 851 25.13 21.8 71.2 29 3.1 37.5
22:40 1022 30.18 851 25.13 21.8 71.2 29 3.3 38
22:45 1022 30.18 851 25.13 21.7 71.1 29 3.1 37.6
22:50 1022 30.18 851 25.13 21.6 70.9 29 3.1 37.6
22:55 1022 30.18 851 25.13 21.5 70.8 29 3.2 37.7
23:00 1022 30.18 851 25.13 21.4 70.5 29 3 37.4
23:05 1022 30.18 851 25.13 21.2 70.1 30 3 37.5
23:10 1022 30.18 851 25.13 21 69.8 30 3 37.4
23:15 1022 30.18 851 25.13 20.9 69.6 30 2.9 37.3
23:20 1022 30.18 851 25.13 20.9 69.5 30 2.9 37.3
23:25 1022 30.18 851 25.13 20.8 69.4 31 3.1 37.6
23:30 1022 30.18 851 25.13 20.6 69.1 31 3.2 37.8
23:35 1022 30.18 851 25.13 20.4 68.8 32 3.3 37.9
23:40 1022 30.18 851 25.13 20.4 68.7 32 3.4 38.1
23:45 1022 30.18 851 25.13 20.4 68.7 33 3.5 38.4
23:50 1022 30.18 851 25.13 20.2 68.4 33 3.8 38.8
23:55 1022 30.18 851 25.13 20.2 68.3 34 3.9 39
24:00 1022 30.18 851 25.13 20.2 68.3 34 4 39.2